Le Ponant — FGZZ — position and weather

sailwx.info

Track history (hours):
 
Tides and Currents Weather Stations Pressure Air Temp Water Temp Dewpoint Dewpoint Depression Visibility Wind Speed Wind Dir Waves Ship Positions

Le Ponant

Operator: Compangy des Iles du Ponant

Last reported at 2015-Sep-01 00:33 UTC. Time now 2015-Sep-01 20:14 UTC.
Position N 42°52' E 008°02'.

Length 84 m; draft 4.2 m.

Type: Passenger vessel. MMSI: 227186000.

Date/timePositionNaut miles runAvg speedWind from/ knotsBaromVisibWave heightAir tempDewpointWater temp
2015-Sep-01 00:33N 42°52' E 008°02'25 8.1
2015-Aug-31 21:28N 43°13' E 007°43'9 9.6
2015-Aug-31 20:33N 43°20' E 007°36'10 9.6
2015-Aug-31 19:33N 43°28' E 007°28'9 9.6
2015-Aug-31 18:33N 43°36' E 007°21'6 6.0
2015-Aug-31 17:29N 43°42' E 007°17'0 0.0
2015-Aug-31 16:04N 43°42' E 007°17'0 0.0
2015-Aug-31 15:28N 43°42' E 007°17'0 0.0
2015-Aug-31 14:32N 43°42' E 007°17'0 0.0
2015-Aug-31 12:23N 43°42' E 007°17'0 0.0
2015-Aug-31 09:20N 43°42' E 007°17'0 0.0
2015-Aug-31 08:22N 43°42' E 007°17'0 0.0
2015-Aug-31 07:33N 43°42' E 007°17'0 0.0
2015-Aug-31 06:29N 43°42' E 007°17'0 0.0
2015-Aug-31 05:31N 43°42' E 007°17'0 0.0
2015-Aug-31 04:05N 43°42' E 007°17'0 0.0
2015-Aug-31 03:20N 43°42' E 007°17'0 0.0
2015-Aug-31 02:33N 43°42' E 007°17'0 0.0
2015-Aug-31 01:32N 43°42' E 007°17'0 0.0
2015-Aug-31 00:30N 43°42' E 007°17'0 0.0
2015-Aug-30 23:31N 43°42' E 007°17'0 0.0
2015-Aug-30 22:19N 43°42' E 007°17'0 0.0
2015-Aug-30 21:07N 43°42' E 007°17'0 0.0
2015-Aug-30 20:26N 43°42' E 007°17'0 0.0
2015-Aug-30 19:20N 43°42' E 007°17'0 0.0
2015-Aug-30 18:32N 43°42' E 007°17'0 0.0
2015-Aug-30 17:32N 43°42' E 007°17'0 0.0
2015-Aug-30 16:21N 43°42' E 007°17'0 0.0
2015-Aug-30 15:32N 43°42' E 007°17'0 0.0
2015-Aug-30 14:32N 43°42' E 007°17'0 0.0
2015-Aug-30 13:21N 43°42' E 007°17'0 0.0
2015-Aug-30 12:32N 43°42' E 007°17'0 0.0
2015-Aug-30 11:33N 43°42' E 007°17'0 0.0
2015-Aug-30 10:32N 43°42' E 007°17'0 0.0
2015-Aug-30 09:30N 43°42' E 007°17'0 0.0
2015-Aug-30 08:31N 43°42' E 007°17'5 5.0
2015-Aug-30 07:32N 43°37' E 007°14'10 9.9
2015-Aug-30 06:33N 43°29' E 007°07'10 9.7
2015-Aug-30 05:33N 43°22' E 006°58'10 9.9
2015-Aug-30 04:33N 43°14' E 006°49'1110.3
2015-Aug-30 03:29N 43°07' E 006°37'76 4.4
2015-Aug-29 10:21N 42°08' E 005°33'15010.9
2015-Aug-28 20:29N 40°00' E 003°47'2 0.3
2015-Aug-28 15:33N 39°60' E 003°49'3 3.3
2015-Aug-28 14:32N 39°59' E 003°45'9 8.2
2015-Aug-28 13:29N 39°59' E 003°33'36 7.2
2015-Aug-28 08:33N 39°52' E 002°48'1111.0
2015-Aug-28 07:32N 39°45' E 002°36'1610.8
2015-Aug-28 06:06N 39°39' E 002°18'610.9
2015-Aug-28 05:33N 39°34' E 002°13'1110.7
2015-Aug-28 04:33N 39°25' E 002°07'1110.7
2015-Aug-28 03:33N 39°17' E 001°57'1110.6
2015-Aug-28 02:33N 39°08' E 001°50'1210.3
2015-Aug-28 01:21N 38°59' E 001°39'810.5
2015-Aug-28 00:33N 38°54' E 001°30'3 0.2
2015-Aug-27 12:12N 38°54' E 001°27'4 6.2
2015-Aug-27 11:33N 38°52' E 001°31'7 7.3
2015-Aug-27 10:34N 38°47' E 001°24'3 2.3
2015-Aug-27 09:20N 38°45' E 001°24'0 0.0
2015-Aug-27 08:33N 38°45' E 001°24'0 0.0
2015-Aug-27 07:16N 38°45' E 001°24'4 5.5
2015-Aug-27 06:30N 38°48' E 001°27'19 9.6
2015-Aug-27 04:33N 38°56' E 001°48'1110.6
2015-Aug-27 03:33N 39°03' E 001°58'1110.7
2015-Aug-27 02:32N 39°10' E 002°09'1010.5
2015-Aug-27 01:33N 39°17' E 002°19'1010.4
2015-Aug-27 00:33N 39°24' E 002°29'1010.4
2015-Aug-26 23:33N 39°32' E 002°38'1 1.3
2015-Aug-26 22:33N 39°33' E 002°38'0 0.0
2015-Aug-26 21:32N 39°33' E 002°38'0 0.0
2015-Aug-26 20:32N 39°33' E 002°38'0 0.0
2015-Aug-26 19:33N 39°33' E 002°38'0 0.0
2015-Aug-26 18:32N 39°33' E 002°38'0 0.0
2015-Aug-26 17:33N 39°33' E 002°38'0 0.0
2015-Aug-26 16:31N 39°33' E 002°38'0 0.0
2015-Aug-26 15:31N 39°33' E 002°38'0 0.0
2015-Aug-26 14:33N 39°33' E 002°38'0 0.0
2015-Aug-26 13:31N 39°33' E 002°38'0 0.0
2015-Aug-26 12:32N 39°33' E 002°38'0 0.0
2015-Aug-26 11:33N 39°33' E 002°38'0 0.0
2015-Aug-26 10:32N 39°33' E 002°38'0 0.0
2015-Aug-26 09:33N 39°33' E 002°38'0 0.0
2015-Aug-26 08:32N 39°33' E 002°38'0 0.0
2015-Aug-26 07:31N 39°33' E 002°38'0 0.0
2015-Aug-26 06:32N 39°33' E 002°38'1 1.5
2015-Aug-26 05:33N 39°32' E 002°39'7 6.9
2015-Aug-26 04:33N 39°26' E 002°42'9 9.0
2015-Aug-26 03:33N 39°18' E 002°48'9 9.2
2015-Aug-26 02:33N 39°16' E 002°59'7 7.4
2015-Aug-26 01:33N 39°16' E 003°09'11 9.9
2015-Aug-26 00:29N 39°22' E 003°20'11 9.8
2015-Aug-25 23:21N 39°27' E 003°33'273 8.3
2015-Aug-24 14:22N 43°13' E 006°56'911.0
2015-Aug-24 13:33N 43°20' E 007°02'1211.6
2015-Aug-24 12:33N 43°30' E 007°10'1211.2
2015-Aug-24 11:31N 43°40' E 007°18'0 0.0
2015-Aug-24 05:19N 43°41' E 007°18'57 8.3
2015-Aug-23 22:24N 43°50' E 008°36'  
Track history (hours):
 
Tides and Currents Weather Stations Pressure Air Temp Water Temp Dewpoint Dewpoint Depression Visibility Wind Speed Wind Dir Waves Ship Positions

Le Ponant

Operator: Compangy des Iles du Ponant

Last reported at 2015-Sep-01 00:33 UTC. Time now 2015-Sep-01 20:14 UTC.
Position N 42°52' E 008°02'.

Length 84 m; draft 4.2 m.

Type: Passenger vessel. MMSI: 227186000.

Date/timePositionNaut miles runAvg speedWind from/ knotsBaromVisibWave heightAir tempDewpointWater temp
2015-Sep-01 00:33N 42°52' E 008°02'25 8.1
2015-Aug-31 21:28N 43°13' E 007°43'9 9.6
2015-Aug-31 20:33N 43°20' E 007°36'10 9.6
2015-Aug-31 19:33N 43°28' E 007°28'9 9.6
2015-Aug-31 18:33N 43°36' E 007°21'6 6.0
2015-Aug-31 17:29N 43°42' E 007°17'0 0.0
2015-Aug-31 16:04N 43°42' E 007°17'0 0.0
2015-Aug-31 15:28N 43°42' E 007°17'0 0.0
2015-Aug-31 14:32N 43°42' E 007°17'0 0.0
2015-Aug-31 12:23N 43°42' E 007°17'0 0.0
2015-Aug-31 09:20N 43°42' E 007°17'0 0.0
2015-Aug-31 08:22N 43°42' E 007°17'0 0.0
2015-Aug-31 07:33N 43°42' E 007°17'0 0.0
2015-Aug-31 06:29N 43°42' E 007°17'0 0.0
2015-Aug-31 05:31N 43°42' E 007°17'0 0.0
2015-Aug-31 04:05N 43°42' E 007°17'0 0.0
2015-Aug-31 03:20N 43°42' E 007°17'0 0.0
2015-Aug-31 02:33N 43°42' E 007°17'0 0.0
2015-Aug-31 01:32N 43°42' E 007°17'0 0.0
2015-Aug-31 00:30N 43°42' E 007°17'0 0.0
2015-Aug-30 23:31N 43°42' E 007°17'0 0.0
2015-Aug-30 22:19N 43°42' E 007°17'0 0.0
2015-Aug-30 21:07N 43°42' E 007°17'0 0.0
2015-Aug-30 20:26N 43°42' E 007°17'0 0.0
2015-Aug-30 19:20N 43°42' E 007°17'0 0.0
2015-Aug-30 18:32N 43°42' E 007°17'0 0.0
2015-Aug-30 17:32N 43°42' E 007°17'0 0.0
2015-Aug-30 16:21N 43°42' E 007°17'0 0.0
2015-Aug-30 15:32N 43°42' E 007°17'0 0.0
2015-Aug-30 14:32N 43°42' E 007°17'0 0.0
2015-Aug-30 13:21N 43°42' E 007°17'0 0.0
2015-Aug-30 12:32N 43°42' E 007°17'0 0.0
2015-Aug-30 11:33N 43°42' E 007°17'0 0.0
2015-Aug-30 10:32N 43°42' E 007°17'0 0.0
2015-Aug-30 09:30N 43°42' E 007°17'0 0.0
2015-Aug-30 08:31N 43°42' E 007°17'5 5.0
2015-Aug-30 07:32N 43°37' E 007°14'10 9.9
2015-Aug-30 06:33N 43°29' E 007°07'10 9.7
2015-Aug-30 05:33N 43°22' E 006°58'10 9.9
2015-Aug-30 04:33N 43°14' E 006°49'1110.3
2015-Aug-30 03:29N 43°07' E 006°37'76 4.4
2015-Aug-29 10:21N 42°08' E 005°33'15010.9
2015-Aug-28 20:29N 40°00' E 003°47'2 0.3
2015-Aug-28 15:33N 39°60' E 003°49'3 3.3
2015-Aug-28 14:32N 39°59' E 003°45'9 8.2
2015-Aug-28 13:29N 39°59' E 003°33'36 7.2
2015-Aug-28 08:33N 39°52' E 002°48'1111.0
2015-Aug-28 07:32N 39°45' E 002°36'1610.8
2015-Aug-28 06:06N 39°39' E 002°18'610.9
2015-Aug-28 05:33N 39°34' E 002°13'1110.7
2015-Aug-28 04:33N 39°25' E 002°07'1110.7
2015-Aug-28 03:33N 39°17' E 001°57'1110.6
2015-Aug-28 02:33N 39°08' E 001°50'1210.3
2015-Aug-28 01:21N 38°59' E 001°39'810.5
2015-Aug-28 00:33N 38°54' E 001°30'3 0.2
2015-Aug-27 12:12N 38°54' E 001°27'4 6.2
2015-Aug-27 11:33N 38°52' E 001°31'7 7.3
2015-Aug-27 10:34N 38°47' E 001°24'3 2.3
2015-Aug-27 09:20N 38°45' E 001°24'0 0.0
2015-Aug-27 08:33N 38°45' E 001°24'0 0.0
2015-Aug-27 07:16N 38°45' E 001°24'4 5.5
2015-Aug-27 06:30N 38°48' E 001°27'19 9.6
2015-Aug-27 04:33N 38°56' E 001°48'1110.6
2015-Aug-27 03:33N 39°03' E 001°58'1110.7
2015-Aug-27 02:32N 39°10' E 002°09'1010.5
2015-Aug-27 01:33N 39°17' E 002°19'1010.4
2015-Aug-27 00:33N 39°24' E 002°29'1010.4
2015-Aug-26 23:33N 39°32' E 002°38'1 1.3
2015-Aug-26 22:33N 39°33' E 002°38'0 0.0
2015-Aug-26 21:32N 39°33' E 002°38'0 0.0
2015-Aug-26 20:32N 39°33' E 002°38'0 0.0
2015-Aug-26 19:33N 39°33' E 002°38'0 0.0
2015-Aug-26 18:32N 39°33' E 002°38'0 0.0
2015-Aug-26 17:33N 39°33' E 002°38'0 0.0
2015-Aug-26 16:31N 39°33' E 002°38'0 0.0
2015-Aug-26 15:31N 39°33' E 002°38'0 0.0
2015-Aug-26 14:33N 39°33' E 002°38'0 0.0
2015-Aug-26 13:31N 39°33' E 002°38'0 0.0
2015-Aug-26 12:32N 39°33' E 002°38'0 0.0
2015-Aug-26 11:33N 39°33' E 002°38'0 0.0
2015-Aug-26 10:32N 39°33' E 002°38'0 0.0
2015-Aug-26 09:33N 39°33' E 002°38'0 0.0
2015-Aug-26 08:32N 39°33' E 002°38'0 0.0
2015-Aug-26 07:31N 39°33' E 002°38'0 0.0
2015-Aug-26 06:32N 39°33' E 002°38'1 1.5
2015-Aug-26 05:33N 39°32' E 002°39'7 6.9
2015-Aug-26 04:33N 39°26' E 002°42'9 9.0
2015-Aug-26 03:33N 39°18' E 002°48'9 9.2
2015-Aug-26 02:33N 39°16' E 002°59'7 7.4
2015-Aug-26 01:33N 39°16' E 003°09'11 9.9
2015-Aug-26 00:29N 39°22' E 003°20'11 9.8
2015-Aug-25 23:21N 39°27' E 003°33'273 8.3
2015-Aug-24 14:22N 43°13' E 006°56'911.0
2015-Aug-24 13:33N 43°20' E 007°02'1211.6
2015-Aug-24 12:33N 43°30' E 007°10'1211.2
2015-Aug-24 11:31N 43°40' E 007°18'0 0.0
2015-Aug-24 05:19N 43°41' E 007°18'57 8.3
2015-Aug-23 22:24N 43°50' E 008°36'  

Dump ship's entire track history